sensor_id;sensor_type;location;lat;lon;timestamp;pressure;altitude;pressure_sealevel;temperature;humidity
31082;BME280;17737;52.586;13.284;2023-02-14T00:01:31;103317.13;;;5.83;74.58
31082;BME280;17737;52.586;13.284;2023-02-14T00:03:59;103317.38;;;5.77;74.53
31082;BME280;17737;52.586;13.284;2023-02-14T00:06:31;103315.09;;;5.88;73.86
31082;BME280;17737;52.586;13.284;2023-02-14T00:09:01;103315.25;;;5.85;74.15
31082;BME280;17737;52.586;13.284;2023-02-14T00:11:29;103314.47;;;5.83;74.05
31082;BME280;17737;52.586;13.284;2023-02-14T00:14:00;103309.38;;;5.77;75.96
31082;BME280;17737;52.586;13.284;2023-02-14T00:16:46;103317.78;;;5.88;74.79
31082;BME280;17737;52.586;13.284;2023-02-14T00:19:15;103319.94;;;5.80;74.69
31082;BME280;17737;52.586;13.284;2023-02-14T00:21:46;103316.75;;;5.72;75.07
31082;BME280;17737;52.586;13.284;2023-02-14T00:24:17;103313.34;;;5.69;75.21
31082;BME280;17737;52.586;13.284;2023-02-14T00:26:47;103310.47;;;5.73;74.81
31082;BME280;17737;52.586;13.284;2023-02-14T00:29:16;103310.91;;;5.83;74.92
31082;BME280;17737;52.586;13.284;2023-02-14T00:31:47;103312.44;;;5.88;74.07
31082;BME280;17737;52.586;13.284;2023-02-14T00:34:16;103310.94;;;6.00;71.81
31082;BME280;17737;52.586;13.284;2023-02-14T00:36:45;103307.06;;;5.88;72.77
31082;BME280;17737;52.586;13.284;2023-02-14T00:39:14;103302.88;;;5.83;73.59
31082;BME280;17737;52.586;13.284;2023-02-14T00:41:44;103302.28;;;5.76;73.30
31082;BME280;17737;52.586;13.284;2023-02-14T00:44:12;103306.69;;;5.77;73.89
31082;BME280;17737;52.586;13.284;2023-02-14T00:46:40;103311.13;;;5.78;74.14
31082;BME280;17737;52.586;13.284;2023-02-14T00:49:10;103313.94;;;5.75;74.65
31082;BME280;17737;52.586;13.284;2023-02-14T00:51:38;103317.06;;;5.66;75.05
31082;BME280;17737;52.586;13.284;2023-02-14T00:54:07;103316.91;;;5.69;75.64
31082;BME280;17737;52.586;13.284;2023-02-14T00:56:35;103313.16;;;5.73;75.04
31082;BME280;17737;52.586;13.284;2023-02-14T00:59:03;103310.69;;;5.69;74.27
31082;BME280;17737;52.586;13.284;2023-02-14T01:01:31;103309.84;;;5.68;75.47
31082;BME280;17737;52.586;13.284;2023-02-14T01:03:59;103313.44;;;5.67;75.74
31082;BME280;17737;52.586;13.284;2023-02-14T01:06:29;103299.84;;;5.72;75.24
31082;BME280;17737;52.586;13.284;2023-02-14T01:08:56;103307.66;;;5.76;74.00
31082;BME280;17737;52.586;13.284;2023-02-14T01:11:25;103303.53;;;5.88;72.88
31082;BME280;17737;52.586;13.284;2023-02-14T01:13:57;103296.25;;;6.26;70.61
31082;BME280;17737;52.586;13.284;2023-02-14T01:16:26;103290.16;;;6.22;70.03
31082;BME280;17737;52.586;13.284;2023-02-14T01:18:55;103285.69;;;6.23;69.71
31082;BME280;17737;52.586;13.284;2023-02-14T01:21:27;103281.69;;;6.14;69.77
31082;BME280;17737;52.586;13.284;2023-02-14T01:24:02;103281.13;;;5.90;70.80
31082;BME280;17737;52.586;13.284;2023-02-14T01:26:32;103276.22;;;5.98;70.09
31082;BME280;17737;52.586;13.284;2023-02-14T01:29:01;103272.06;;;5.74;71.90
31082;BME280;17737;52.586;13.284;2023-02-14T01:31:33;103276.84;;;5.86;71.19
31082;BME280;17737;52.586;13.284;2023-02-14T01:34:02;103275.53;;;5.95;71.31
31082;BME280;17737;52.586;13.284;2023-02-14T01:36:34;103273.09;;;6.07;70.39
31082;BME280;17737;52.586;13.284;2023-02-14T01:39:06;103270.56;;;6.04;70.74
31082;BME280;17737;52.586;13.284;2023-02-14T01:41:36;103276.41;;;5.95;70.20
31082;BME280;17737;52.586;13.284;2023-02-14T01:47:30;103270.19;;;5.76;72.16
31082;BME280;17737;52.586;13.284;2023-02-14T01:50:04;103270.00;;;5.98;71.28
31082;BME280;17737;52.586;13.284;2023-02-14T01:52:40;103262.31;;;5.92;70.98
31082;BME280;17737;52.586;13.284;2023-02-14T01:55:15;103260.63;;;5.89;71.43
31082;BME280;17737;52.586;13.284;2023-02-14T01:57:48;103268.47;;;5.75;72.00
31082;BME280;17737;52.586;13.284;2023-02-14T02:00:21;103271.59;;;5.66;72.41
31082;BME280;17737;52.586;13.284;2023-02-14T02:03:08;103268.38;;;5.60;73.23
31082;BME280;17737;52.586;13.284;2023-02-14T02:05:40;103269.19;;;5.60;73.69
31082;BME280;17737;52.586;13.284;2023-02-14T02:08:13;103261.97;;;5.62;73.32
31082;BME280;17737;52.586;13.284;2023-02-14T02:10:42;103267.97;;;5.67;73.39
31082;BME280;17737;52.586;13.284;2023-02-14T02:13:15;103266.44;;;5.62;74.13
31082;BME280;17737;52.586;13.284;2023-02-14T02:15:53;103267.25;;;5.64;74.50
31082;BME280;17737;52.586;13.284;2023-02-14T02:18:49;103261.78;;;5.67;73.59
31082;BME280;17737;52.586;13.284;2023-02-14T02:24:37;103272.06;;;5.74;72.12
31082;BME280;17737;52.586;13.284;2023-02-14T02:27:23;103265.56;;;5.80;72.03
31082;BME280;17737;52.586;13.284;2023-02-14T02:30:32;103274.03;;;5.71;73.36
31082;BME280;17737;52.586;13.284;2023-02-14T02:33:33;103266.00;;;5.89;72.40
31082;BME280;17737;52.586;13.284;2023-02-14T02:36:50;103271.81;;;5.62;72.14
31082;BME280;17737;52.586;13.284;2023-02-14T02:39:40;103264.97;;;5.56;73.95
31082;BME280;17737;52.586;13.284;2023-02-14T02:42:30;103274.59;;;5.77;73.61
31082;BME280;17737;52.586;13.284;2023-02-14T02:45:11;103270.56;;;6.04;72.27
31082;BME280;17737;52.586;13.284;2023-02-14T02:47:53;103272.94;;;5.93;71.96
31082;BME280;17737;52.586;13.284;2023-02-14T02:50:30;103273.09;;;5.72;73.32
31082;BME280;17737;52.586;13.284;2023-02-14T02:53:23;103278.50;;;5.70;72.78
31082;BME280;17737;52.586;13.284;2023-02-14T02:55:58;103267.88;;;5.69;73.36
31082;BME280;17737;52.586;13.284;2023-02-14T02:58:50;103275.34;;;5.62;73.13
31082;BME280;17737;52.586;13.284;2023-02-14T03:01:25;103269.28;;;5.59;72.69
31082;BME280;17737;52.586;13.284;2023-02-14T03:03:59;103265.78;;;5.58;73.79
31082;BME280;17737;52.586;13.284;2023-02-14T03:06:47;103260.78;;;5.51;75.07
31082;BME280;17737;52.586;13.284;2023-02-14T03:09:50;103256.50;;;5.47;74.83
31082;BME280;17737;52.586;13.284;2023-02-14T03:12:36;103268.09;;;5.47;74.25
31082;BME280;17737;52.586;13.284;2023-02-14T03:15:31;103259.09;;;5.48;74.43
31082;BME280;17737;52.586;13.284;2023-02-14T03:18:11;103260.69;;;5.52;74.36
31082;BME280;17737;52.586;13.284;2023-02-14T03:21:22;103266.50;;;5.43;74.25
31082;BME280;17737;52.586;13.284;2023-02-14T03:24:04;103271.13;;;5.58;74.64
31082;BME280;17737;52.586;13.284;2023-02-14T03:26:54;103267.72;;;5.55;73.44
31082;BME280;17737;52.586;13.284;2023-02-14T03:29:35;103266.22;;;5.49;74.91
31082;BME280;17737;52.586;13.284;2023-02-14T03:32:16;103263.25;;;5.72;74.00
31082;BME280;17737;52.586;13.284;2023-02-14T03:34:53;103264.94;;;5.75;72.47
31082;BME280;17737;52.586;13.284;2023-02-14T03:37:30;103257.31;;;5.84;72.50
31082;BME280;17737;52.586;13.284;2023-02-14T03:40:05;103260.28;;;5.78;73.30
31082;BME280;17737;52.586;13.284;2023-02-14T03:42:42;103262.47;;;5.89;72.71
31082;BME280;17737;52.586;13.284;2023-02-14T03:45:19;103260.44;;;5.75;73.12
31082;BME280;17737;52.586;13.284;2023-02-14T03:47:56;103259.38;;;5.61;73.85
31082;BME280;17737;52.586;13.284;2023-02-14T03:50:30;103261.25;;;5.59;74.01
31082;BME280;17737;52.586;13.284;2023-02-14T03:53:02;103258.31;;;5.65;73.21
31082;BME280;17737;52.586;13.284;2023-02-14T03:55:40;103254.47;;;5.52;74.39
31082;BME280;17737;52.586;13.284;2023-02-14T03:58:19;103261.72;;;5.50;74.40
31082;BME280;17737;52.586;13.284;2023-02-14T04:00:56;103261.72;;;5.50;73.93
31082;BME280;17737;52.586;13.284;2023-02-14T04:03:28;103255.03;;;5.41;75.56
31082;BME280;17737;52.586;13.284;2023-02-14T04:05:59;103250.13;;;5.32;76.15
31082;BME280;17737;52.586;13.284;2023-02-14T04:08:28;103248.97;;;5.38;76.38
31082;BME280;17737;52.586;13.284;2023-02-14T04:10:59;103255.38;;;5.34;76.16
31082;BME280;17737;52.586;13.284;2023-02-14T04:13:30;103254.41;;;5.53;74.48
31082;BME280;17737;52.586;13.284;2023-02-14T04:15:59;103252.59;;;5.54;74.75
31082;BME280;17737;52.586;13.284;2023-02-14T04:18:27;103254.63;;;5.49;75.06
31082;BME280;17737;52.586;13.284;2023-02-14T04:21:13;103244.28;;;5.60;73.98
31082;BME280;17737;52.586;13.284;2023-02-14T04:23:41;103245.69;;;5.50;74.38
31082;BME280;17737;52.586;13.284;2023-02-14T04:26:09;103255.31;;;5.71;74.13
31082;BME280;17737;52.586;13.284;2023-02-14T04:28:38;103253.78;;;5.65;73.78
31082;BME280;17737;52.586;13.284;2023-02-14T04:31:06;103243.09;;;5.65;74.22
31082;BME280;17737;52.586;13.284;2023-02-14T04:33:36;103248.25;;;5.70;73.98
31082;BME280;17737;52.586;13.284;2023-02-14T04:36:05;103247.06;;;5.75;73.61
31082;BME280;17737;52.586;13.284;2023-02-14T04:38:33;103246.97;;;5.95;72.83
31082;BME280;17737;52.586;13.284;2023-02-14T04:41:01;103245.16;;;5.77;72.86
31082;BME280;17737;52.586;13.284;2023-02-14T04:43:29;103243.41;;;5.95;72.70
31082;BME280;17737;52.586;13.284;2023-02-14T04:45:59;103242.00;;;5.88;72.29
31082;BME280;17737;52.586;13.284;2023-02-14T04:48:27;103242.78;;;5.54;74.21
31082;BME280;17737;52.586;13.284;2023-02-14T04:50:55;103240.00;;;5.39;75.45
31082;BME280;17737;52.586;13.284;2023-02-14T04:53:24;103239.91;;;5.40;75.36
31082;BME280;17737;52.586;13.284;2023-02-14T04:55:52;103236.88;;;5.48;75.00
31082;BME280;17737;52.586;13.284;2023-02-14T04:58:20;103229.28;;;5.74;74.30
31082;BME280;17737;52.586;13.284;2023-02-14T05:00:48;103233.03;;;5.70;73.79
31082;BME280;17737;52.586;13.284;2023-02-14T05:03:17;103235.59;;;5.73;73.60
31082;BME280;17737;52.586;13.284;2023-02-14T05:05:45;103239.63;;;5.46;74.33
31082;BME280;17737;52.586;13.284;2023-02-14T05:08:13;103233.47;;;5.44;74.65
31082;BME280;17737;52.586;13.284;2023-02-14T05:10:41;103229.19;;;5.76;73.17
31082;BME280;17737;52.586;13.284;2023-02-14T05:13:09;103228.09;;;5.80;73.18
31082;BME280;17737;52.586;13.284;2023-02-14T05:15:37;103219.25;;;5.96;72.14
31082;BME280;17737;52.586;13.284;2023-02-14T05:18:05;103224.44;;;5.99;72.15
31082;BME280;17737;52.586;13.284;2023-02-14T05:20:34;103223.50;;;5.83;72.71
31082;BME280;17737;52.586;13.284;2023-02-14T05:23:02;103222.81;;;5.61;73.63
31082;BME280;17737;52.586;13.284;2023-02-14T05:25:31;103223.94;;;5.74;73.13
31082;BME280;17737;52.586;13.284;2023-02-14T05:27:59;103219.63;;;5.53;73.63
31082;BME280;17737;52.586;13.284;2023-02-14T05:30:27;103224.13;;;5.53;74.01
31082;BME280;17737;52.586;13.284;2023-02-14T05:32:55;103226.97;;;5.85;73.36
31082;BME280;17737;52.586;13.284;2023-02-14T05:35:23;103220.16;;;5.78;72.50
31082;BME280;17737;52.586;13.284;2023-02-14T05:37:53;103216.41;;;5.82;72.79
31082;BME280;17737;52.586;13.284;2023-02-14T05:40:21;103225.22;;;5.49;73.65
31082;BME280;17737;52.586;13.284;2023-02-14T05:42:48;103216.84;;;5.56;73.61
31082;BME280;17737;52.586;13.284;2023-02-14T05:45:19;103221.16;;;5.76;73.09
31082;BME280;17737;52.586;13.284;2023-02-14T05:47:47;103221.66;;;5.67;73.80
31082;BME280;17737;52.586;13.284;2023-02-14T05:50:16;103214.53;;;5.49;74.37
31082;BME280;17737;52.586;13.284;2023-02-14T05:52:44;103215.63;;;5.45;75.13
31082;BME280;17737;52.586;13.284;2023-02-14T05:55:14;103212.84;;;5.65;74.03
31082;BME280;17737;52.586;13.284;2023-02-14T05:57:42;103216.56;;;5.44;74.63
31082;BME280;17737;52.586;13.284;2023-02-14T06:00:12;103219.25;;;5.44;74.79
31082;BME280;17737;52.586;13.284;2023-02-14T06:02:41;103220.50;;;5.54;74.19
31082;BME280;17737;52.586;13.284;2023-02-14T06:05:09;103211.63;;;5.89;72.98
31082;BME280;17737;52.586;13.284;2023-02-14T06:07:37;103215.91;;;5.74;72.97
31082;BME280;17737;52.586;13.284;2023-02-14T06:10:06;103211.63;;;5.70;73.39
31082;BME280;17737;52.586;13.284;2023-02-14T06:12:37;103214.31;;;5.70;73.67
31082;BME280;17737;52.586;13.284;2023-02-14T06:15:05;103216.41;;;5.82;73.05
31082;BME280;17737;52.586;13.284;2023-02-14T06:17:34;103212.13;;;5.61;73.18
31082;BME280;17737;52.586;13.284;2023-02-14T06:20:02;103217.00;;;5.70;73.63
31082;BME280;17737;52.586;13.284;2023-02-14T06:22:30;103222.63;;;5.83;72.86
31082;BME280;17737;52.586;13.284;2023-02-14T06:24:58;103217.69;;;5.74;73.25
31082;BME280;17737;52.586;13.284;2023-02-14T06:27:27;103216.91;;;5.90;72.63
31082;BME280;17737;52.586;13.284;2023-02-14T06:29:57;103220.00;;;5.81;72.72
31082;BME280;17737;52.586;13.284;2023-02-14T06:32:26;103223.13;;;5.72;73.22
31082;BME280;17737;52.586;13.284;2023-02-14T06:34:54;103215.88;;;5.57;74.41
31082;BME280;17737;52.586;13.284;2023-02-14T06:37:22;103212.13;;;5.78;72.90
31082;BME280;17737;52.586;13.284;2023-02-14T06:39:50;103216.19;;;5.87;73.05
31082;BME280;17737;52.586;13.284;2023-02-14T06:42:18;103215.66;;;5.79;73.07
31082;BME280;17737;52.586;13.284;2023-02-14T06:44:46;103215.81;;;5.76;73.17
31082;BME280;17737;52.586;13.284;2023-02-14T06:47:16;103212.97;;;5.62;73.46
31082;BME280;17737;52.586;13.284;2023-02-14T06:49:44;103217.19;;;5.49;74.63
31082;BME280;17737;52.586;13.284;2023-02-14T06:52:12;103215.97;;;5.73;72.76
31082;BME280;17737;52.586;13.284;2023-02-14T06:54:40;103220.00;;;5.81;72.67
31082;BME280;17737;52.586;13.284;2023-02-14T06:57:08;103228.34;;;5.75;73.04
31082;BME280;17737;52.586;13.284;2023-02-14T06:59:36;103215.78;;;5.94;72.47
31082;BME280;17737;52.586;13.284;2023-02-14T07:02:04;103224.25;;;5.68;73.81
31082;BME280;17737;52.586;13.284;2023-02-14T07:04:33;103217.31;;;5.64;73.79
31082;BME280;17737;52.586;13.284;2023-02-14T07:07:01;103217.31;;;5.81;73.46
31082;BME280;17737;52.586;13.284;2023-02-14T07:09:30;103221.56;;;5.68;73.48
31082;BME280;17737;52.586;13.284;2023-02-14T07:11:58;103215.44;;;5.66;74.21
31082;BME280;17737;52.586;13.284;2023-02-14T07:14:27;103220.47;;;5.72;73.97
31082;BME280;17737;52.586;13.284;2023-02-14T07:16:55;103217.66;;;5.75;73.69
31082;BME280;17737;52.586;13.284;2023-02-14T07:19:23;103223.06;;;5.74;73.48
31082;BME280;17737;52.586;13.284;2023-02-14T07:21:52;103228.84;;;6.00;73.26
31082;BME280;17737;52.586;13.284;2023-02-14T07:24:20;103215.97;;;5.73;74.78
31082;BME280;17737;52.586;13.284;2023-02-14T07:26:49;103223.25;;;5.88;75.17
31082;BME280;17737;52.586;13.284;2023-02-14T07:29:16;103219.50;;;5.92;74.95
31082;BME280;17737;52.586;13.284;2023-02-14T07:31:44;103226.47;;;5.94;74.67
31082;BME280;17737;52.586;13.284;2023-02-14T07:34:12;103216.72;;;6.28;73.38
31082;BME280;17737;52.586;13.284;2023-02-14T07:36:40;103215.47;;;6.00;73.71
31082;BME280;17737;52.586;13.284;2023-02-14T07:39:10;103215.22;;;5.88;74.35
31082;BME280;17737;52.586;13.284;2023-02-14T07:41:38;103211.75;;;5.86;74.95
31082;BME280;17737;52.586;13.284;2023-02-14T07:44:06;103223.09;;;5.91;73.99
31082;BME280;17737;52.586;13.284;2023-02-14T07:46:34;103210.28;;;5.97;74.28
31082;BME280;17737;52.586;13.284;2023-02-14T07:49:02;103217.34;;;6.33;72.61
31082;BME280;17737;52.586;13.284;2023-02-14T07:51:31;103213.94;;;6.29;73.31
31082;BME280;17737;52.586;13.284;2023-02-14T07:53:58;103207.75;;;6.12;72.95
31082;BME280;17737;52.586;13.284;2023-02-14T07:56:28;103215.94;;;6.08;73.72
31082;BME280;17737;52.586;13.284;2023-02-14T07:58:56;103208.41;;;6.49;71.95
31082;BME280;17737;52.586;13.284;2023-02-14T08:01:24;103207.06;;;6.73;70.87
31082;BME280;17737;52.586;13.284;2023-02-14T08:03:52;103214.13;;;6.74;70.59
31082;BME280;17737;52.586;13.284;2023-02-14T08:06:20;103206.28;;;6.39;71.34
31082;BME280;17737;52.586;13.284;2023-02-14T08:08:48;103214.34;;;6.22;72.75
31082;BME280;17737;52.586;13.284;2023-02-14T08:11:16;103222.09;;;6.11;72.99
31082;BME280;17737;52.586;13.284;2023-02-14T08:14:00;103223.19;;;5.89;74.36
31082;BME280;17737;52.586;13.284;2023-02-14T08:16:28;103224.28;;;5.85;74.92
31082;BME280;17737;52.586;13.284;2023-02-14T08:18:57;103221.97;;;5.78;74.84
31082;BME280;17737;52.586;13.284;2023-02-14T08:21:25;103231.78;;;5.77;75.71
31082;BME280;17737;52.586;13.284;2023-02-14T08:23:53;103231.38;;;5.86;74.80
31082;BME280;17737;52.586;13.284;2023-02-14T08:26:22;103228.53;;;6.06;73.55
31082;BME280;17737;52.586;13.284;2023-02-14T08:28:50;103226.28;;;6.32;72.66
31082;BME280;17737;52.586;13.284;2023-02-14T08:31:24;103236.44;;;6.75;70.86
31082;BME280;17737;52.586;13.284;2023-02-14T08:34:02;103235.41;;;6.62;70.32
31082;BME280;17737;52.586;13.284;2023-02-14T08:36:30;103238.03;;;6.79;69.40
31082;BME280;17737;52.586;13.284;2023-02-14T08:38:58;103243.25;;;6.65;70.16
31082;BME280;17737;52.586;13.284;2023-02-14T08:41:26;103239.59;;;6.50;70.41
31082;BME280;17737;52.586;13.284;2023-02-14T08:43:55;103245.41;;;6.58;70.60
31082;BME280;17737;52.586;13.284;2023-02-14T08:46:24;103246.84;;;6.81;69.92
31082;BME280;17737;52.586;13.284;2023-02-14T08:48:52;103252.78;;;6.70;70.42
31082;BME280;17737;52.586;13.284;2023-02-14T08:51:21;103248.13;;;6.74;70.90
31082;BME280;17737;52.586;13.284;2023-02-14T08:53:51;103247.00;;;6.78;70.85
31082;BME280;17737;52.586;13.284;2023-02-14T08:56:21;103242.19;;;6.84;70.44
31082;BME280;17737;52.586;13.284;2023-02-14T08:58:53;103247.13;;;6.92;69.24
31082;BME280;17737;52.586;13.284;2023-02-14T09:01:21;103257.84;;;6.92;69.18
31082;BME280;17737;52.586;13.284;2023-02-14T09:03:51;103255.97;;;7.25;68.44
31082;BME280;17737;52.586;13.284;2023-02-14T09:06:19;103250.34;;;7.45;67.33
31082;BME280;17737;52.586;13.284;2023-02-14T09:08:47;103248.53;;;7.14;68.06
31082;BME280;17737;52.586;13.284;2023-02-14T09:11:17;103247.06;;;7.24;67.71
31082;BME280;17737;52.586;13.284;2023-02-14T09:13:48;103253.03;;;7.29;67.61
31082;BME280;17737;52.586;13.284;2023-02-14T09:16:18;103254.13;;;7.25;67.57
31082;BME280;17737;52.586;13.284;2023-02-14T09:18:47;103254.13;;;7.25;67.88
31082;BME280;17737;52.586;13.284;2023-02-14T09:21:19;103255.44;;;7.18;67.99
31082;BME280;17737;52.586;13.284;2023-02-14T09:23:49;103255.34;;;7.04;68.90
31082;BME280;17737;52.586;13.284;2023-02-14T09:26:18;103256.81;;;7.10;68.60
31082;BME280;17737;52.586;13.284;2023-02-14T09:28:47;103254.59;;;7.34;67.22
31082;BME280;17737;52.586;13.284;2023-02-14T09:31:17;103248.44;;;7.16;67.33
31082;BME280;17737;52.586;13.284;2023-02-14T09:33:47;103247.47;;;7.32;67.20
31082;BME280;17737;52.586;13.284;2023-02-14T09:36:35;103248.09;;;7.06;68.30
31082;BME280;17737;52.586;13.284;2023-02-14T09:39:21;103247.94;;;7.25;67.15
31082;BME280;17737;52.586;13.284;2023-02-14T09:42:29;103253.31;;;7.25;66.92
31082;BME280;17737;52.586;13.284;2023-02-14T09:45:14;103252.91;;;7.00;67.28
31082;BME280;17737;52.586;13.284;2023-02-14T09:47:48;103249.63;;;6.95;67.78
31082;BME280;17737;52.586;13.284;2023-02-14T09:50:24;103253.97;;;7.13;67.71
31082;BME280;17737;52.586;13.284;2023-02-14T09:53:00;103247.25;;;7.21;67.42
31082;BME280;17737;52.586;13.284;2023-02-14T09:55:38;103259.44;;;7.11;67.94
31082;BME280;17737;52.586;13.284;2023-02-14T09:58:18;103259.34;;;7.28;67.41
31082;BME280;17737;52.586;13.284;2023-02-14T10:00:55;103257.38;;;7.32;66.27
31082;BME280;17737;52.586;13.284;2023-02-14T10:03:35;103254.75;;;7.15;67.78
31082;BME280;17737;52.586;13.284;2023-02-14T10:06:25;103256.91;;;7.24;66.96
31082;BME280;17737;52.586;13.284;2023-02-14T10:09:44;103261.59;;;7.36;66.60
31082;BME280;17737;52.586;13.284;2023-02-14T10:12:27;103267.47;;;7.58;65.85
31082;BME280;17737;52.586;13.284;2023-02-14T10:15:00;103265.84;;;7.40;66.22
31082;BME280;17737;52.586;13.284;2023-02-14T10:17:38;103264.34;;;7.19;67.67
31082;BME280;17737;52.586;13.284;2023-02-14T10:20:17;103265.22;;;7.35;67.64
31082;BME280;17737;52.586;13.284;2023-02-14T10:22:59;103256.47;;;7.63;66.73
31082;BME280;17737;52.586;13.284;2023-02-14T10:25:38;103259.75;;;7.68;65.49
31082;BME280;17737;52.586;13.284;2023-02-14T10:28:12;103249.41;;;7.91;64.67
31082;BME280;17737;52.586;13.284;2023-02-14T10:30:47;103251.63;;;7.69;65.52
31082;BME280;17737;52.586;13.284;2023-02-14T10:33:27;103245.75;;;7.47;65.96
31082;BME280;17737;52.586;13.284;2023-02-14T10:36:04;103244.69;;;7.65;65.47
31082;BME280;17737;52.586;13.284;2023-02-14T10:38:50;103243.84;;;7.94;65.00
31082;BME280;17737;52.586;13.284;2023-02-14T10:41:38;103242.63;;;8.00;64.56
31082;BME280;17737;52.586;13.284;2023-02-14T10:44:34;103234.88;;;7.80;64.80
31082;BME280;17737;52.586;13.284;2023-02-14T10:47:23;103247.19;;;7.68;65.92
31082;BME280;17737;52.586;13.284;2023-02-14T10:50:06;103239.94;;;8.00;64.72
31082;BME280;17737;52.586;13.284;2023-02-14T10:52:47;103234.75;;;7.67;65.85
31082;BME280;17737;52.586;13.284;2023-02-14T10:55:31;103232.34;;;7.63;65.99
31082;BME280;17737;52.586;13.284;2023-02-14T10:58:11;103232.38;;;7.77;65.62
31082;BME280;17737;52.586;13.284;2023-02-14T11:00:51;103234.47;;;7.56;66.40
31082;BME280;17737;52.586;13.284;2023-02-14T11:03:27;103231.03;;;7.99;64.74
31082;BME280;17737;52.586;13.284;2023-02-14T11:05:56;103232.66;;;8.02;64.71
31082;BME280;17737;52.586;13.284;2023-02-14T11:08:26;103223.81;;;8.29;63.46
31082;BME280;17737;52.586;13.284;2023-02-14T11:11:02;103221.00;;;8.17;64.36
31082;BME280;17737;52.586;13.284;2023-02-14T11:13:41;103232.78;;;8.14;64.31
31082;BME280;17737;52.586;13.284;2023-02-14T11:16:22;103211.69;;;8.22;64.14
31082;BME280;17737;52.586;13.284;2023-02-14T11:19:18;103216.22;;;7.92;64.51
31082;BME280;17737;52.586;13.284;2023-02-14T11:21:50;103207.38;;;8.20;64.03
31082;BME280;17737;52.586;13.284;2023-02-14T11:24:26;103214.63;;;8.04;63.80
31082;BME280;17737;52.586;13.284;2023-02-14T11:26:58;103214.53;;;8.05;64.40
31082;BME280;17737;52.586;13.284;2023-02-14T11:29:32;103209.97;;;8.21;63.78
31082;BME280;17737;52.586;13.284;2023-02-14T11:32:07;103210.84;;;8.22;63.88
31082;BME280;17737;52.586;13.284;2023-02-14T11:34:39;103208.69;;;8.28;63.95
31082;BME280;17737;52.586;13.284;2023-02-14T11:37:22;103215.06;;;8.12;64.47
31082;BME280;17737;52.586;13.284;2023-02-14T11:39:55;103206.94;;;7.98;64.42
31082;BME280;17737;52.586;13.284;2023-02-14T11:42:35;103211.19;;;8.16;63.76
31082;BME280;17737;52.586;13.284;2023-02-14T11:45:26;103209.28;;;7.74;65.82
31082;BME280;17737;52.586;13.284;2023-02-14T11:48:15;103211.09;;;8.03;65.03
31082;BME280;17737;52.586;13.284;2023-02-14T11:51:04;103203.50;;;7.96;65.51
31082;BME280;17737;52.586;13.284;2023-02-14T11:53:43;103210.50;;;7.98;65.79
31082;BME280;17737;52.586;13.284;2023-02-14T11:56:14;103193.75;;;8.23;64.76
31082;BME280;17737;52.586;13.284;2023-02-14T11:58:47;103198.88;;;8.27;63.78
31082;BME280;17737;52.586;13.284;2023-02-14T12:01:24;103197.56;;;8.19;64.32
31082;BME280;17737;52.586;13.284;2023-02-14T12:03:56;103188.34;;;8.09;64.71
31082;BME280;17737;52.586;13.284;2023-02-14T12:06:29;103187.19;;;8.57;62.42
31082;BME280;17737;52.586;13.284;2023-02-14T12:09:22;103189.53;;;8.19;64.05
31082;BME280;17737;52.586;13.284;2023-02-14T12:11:56;103187.19;;;7.99;64.29
31082;BME280;17737;52.586;13.284;2023-02-14T12:14:27;103183.53;;;8.29;64.05
31082;BME280;17737;52.586;13.284;2023-02-14T12:17:02;103181.63;;;8.45;64.11
31082;BME280;17737;52.586;13.284;2023-02-14T12:19:41;103168.47;;;8.69;62.78
31082;BME280;17737;52.586;13.284;2023-02-14T12:22:18;103157.53;;;8.72;61.82
31082;BME280;17737;52.586;13.284;2023-02-14T12:24:55;103156.47;;;8.46;63.34
31082;BME280;17737;52.586;13.284;2023-02-14T12:27:31;103157.25;;;8.34;64.01
31082;BME280;17737;52.586;13.284;2023-02-14T12:30:13;103147.78;;;8.29;63.70
31082;BME280;17737;52.586;13.284;2023-02-14T12:32:48;103155.38;;;8.21;64.18
31082;BME280;17737;52.586;13.284;2023-02-14T12:35:21;103151.66;;;8.09;64.42
31082;BME280;17737;52.586;13.284;2023-02-14T12:38:09;103130.00;;;8.26;64.25
31082;BME280;17737;52.586;13.284;2023-02-14T12:40:53;103133.66;;;8.25;63.58
31082;BME280;17737;52.586;13.284;2023-02-14T12:43:44;103128.00;;;8.30;64.20
31082;BME280;17737;52.586;13.284;2023-02-14T12:46:36;103123.94;;;8.23;63.84
31082;BME280;17737;52.586;13.284;2023-02-14T12:52:55;103118.97;;;8.31;62.93
31082;BME280;17737;52.586;13.284;2023-02-14T12:55:57;103115.72;;;8.26;63.18
31082;BME280;17737;52.586;13.284;2023-02-14T12:58:42;103113.59;;;8.31;63.30
31082;BME280;17737;52.586;13.284;2023-02-14T13:01:33;103116.69;;;8.39;63.94
31082;BME280;17737;52.586;13.284;2023-02-14T13:04:37;103109.38;;;8.55;62.66
31082;BME280;17737;52.586;13.284;2023-02-14T13:07:30;103111.53;;;7.92;63.75
31082;BME280;17737;52.586;13.284;2023-02-14T13:10:14;103109.91;;;7.76;63.97
31082;BME280;17737;52.586;13.284;2023-02-14T13:12:58;103107.50;;;7.71;64.55
31082;BME280;17737;52.586;13.284;2023-02-14T13:15:37;103103.75;;;7.74;64.71
31082;BME280;17737;52.586;13.284;2023-02-14T13:18:18;103103.38;;;7.80;64.81
31082;BME280;17737;52.586;13.284;2023-02-14T13:20:59;103104.06;;;7.97;65.19
31082;BME280;17737;52.586;13.284;2023-02-14T13:23:34;103097.78;;;8.26;65.32
31082;BME280;17737;52.586;13.284;2023-02-14T13:26:11;103102.75;;;8.46;65.06
31082;BME280;17737;52.586;13.284;2023-02-14T13:28:48;103099.38;;;8.57;65.08
31082;BME280;17737;52.586;13.284;2023-02-14T13:31:19;103093.13;;;8.57;63.38
31082;BME280;17737;52.586;13.284;2023-02-14T13:33:50;103096.69;;;8.57;64.12
31082;BME280;17737;52.586;13.284;2023-02-14T13:36:24;103091.78;;;8.64;64.07
31082;BME280;17737;52.586;13.284;2023-02-14T13:38:56;103094.88;;;8.58;62.96